Time;durP1;ratioP1;P1;durP2;ratioP2;P2;SDS_P1;SDS_P2;PMS_P1;PMS_P2;Temp;Humidity;BMP_temperature;BMP_pressure;BME280_temperature;BME280_humidity;BME280_pressure;Samples;Min_cycle;Max_cycle;Signal;HPM_P1;HPM_P2
2023/04/03 00:00:11;;;;;;;10.30;6.87;;;-0.60;86.50;;;;;;4998388;28;20183;-93
2023/04/03 00:02:36;;;;;;;9.17;6.87;;;-0.60;86.60;;;;;;4999040;28;20277;-93
2023/04/03 00:05:02;;;;;;;11.70;7.07;;;-0.60;86.60;;;;;;4996996;28;20233;-93
2023/04/03 00:07:28;;;;;;;15.20;7.00;;;-0.70;86.60;;;;;;4995457;28;20232;-92
2023/04/03 00:09:53;;;;;;;7.13;6.53;;;-0.70;86.70;;;;;;4994970;28;20226;-92
2023/04/03 00:12:19;;;;;;;8.57;7.53;;;-0.70;86.70;;;;;;4995015;28;20186;-93
2023/04/03 00:14:44;;;;;;;10.90;8.67;;;-0.70;86.70;;;;;;4994968;28;20292;-93
2023/04/03 00:17:10;;;;;;;8.13;6.70;;;-0.70;86.70;;;;;;4995758;28;20232;-93
2023/04/03 00:19:35;;;;;;;6.90;6.33;;;-0.70;86.70;;;;;;4997763;28;20182;-93
2023/04/03 00:22:01;;;;;;;10.57;6.47;;;-0.80;86.70;;;;;;5000341;28;20178;-93
2023/04/03 00:24:27;;;;;;;13.97;7.43;;;-0.80;86.80;;;;;;4999670;28;20210;-93
2023/04/03 00:26:52;;;;;;;13.50;7.23;;;-0.80;86.80;;;;;;4999273;28;20186;-93
2023/04/03 00:29:18;;;;;;;11.37;7.10;;;-0.80;86.90;;;;;;4999685;28;20525;-93
2023/04/03 00:31:43;;;;;;;8.10;7.10;;;-0.80;86.90;;;;;;5004900;28;20288;-93
2023/04/03 00:34:09;;;;;;;10.67;7.53;;;-0.80;86.90;;;;;;4998750;28;20272;-94
2023/04/03 00:36:38;;;;;;;9.77;7.40;;;-0.80;87.00;;;;;;5005707;28;20258;-93
2023/04/03 00:39:04;;;;;;;8.73;7.37;;;-0.70;87.00;;;;;;5015909;28;20211;-93
2023/04/03 00:41:30;;;;;;;13.37;7.97;;;-0.70;87.00;;;;;;5171790;22;20709;-91
2023/04/03 00:43:58;;;;;;;12.10;7.83;;;-0.70;86.90;;;;;;5004162;28;21546;-94
2023/04/03 00:46:24;;;;;;;10.90;6.90;;;-0.70;86.90;;;;;;5002191;28;20181;-94
2023/04/03 00:48:50;;;;;;;9.70;7.37;;;-0.80;86.80;;;;;;5004969;28;20256;-93
2023/04/03 00:51:26;;;;;;;8.83;7.17;;;-0.80;86.80;;;;;;5014157;28;20183;-93
2023/04/03 00:54:02;;;;;;;8.13;7.07;;;-0.80;86.80;;;;;;5010470;28;20209;-93
2023/04/03 00:56:29;;;;;;;9.50;7.37;;;-0.80;86.80;;;;;;5007872;28;20174;-92
2023/04/03 00:59:25;;;;;;;10.63;7.53;;;-0.80;86.80;;;;;;4994975;28;20186;-92
2023/04/03 01:01:52;;;;;;;14.30;7.80;;;-0.80;86.90;;;;;;4991700;28;20365;-93
2023/04/03 01:04:44;;;;;;;8.00;6.77;;;-0.80;86.90;;;;;;4994094;28;20201;-93
2023/04/03 01:07:11;;;;;;;11.63;7.70;;;-0.90;86.80;;;;;;4990749;28;20182;-93
2023/04/03 01:09:38;;;;;;;8.40;6.83;;;-0.90;86.80;;;;;;4994100;28;20200;-92
2023/04/03 01:12:20;;;;;;;9.33;6.87;;;-0.90;86.80;;;;;;4994549;28;20179;-93
2023/04/03 01:14:48;;;;;;;7.90;7.20;;;-1.00;86.80;;;;;;4995530;28;20202;-93
2023/04/03 01:17:39;;;;;;;10.53;7.00;;;-1.00;86.90;;;;;;4994191;28;20183;-92
2023/04/03 01:20:23;;;;;;;7.53;6.90;;;-1.10;87.00;;;;;;4994054;28;20517;-93
2023/04/03 01:23:10;;;;;;;8.73;7.27;;;-1.10;87.10;;;;;;4994212;28;20187;-93
2023/04/03 01:25:39;;;;;;;10.90;6.40;;;-1.00;87.20;;;;;;4993644;28;20218;-93
2023/04/03 01:28:07;;;;;;;8.93;7.33;;;-1.10;87.30;;;;;;4993934;28;20285;-92
2023/04/03 01:30:48;;;;;;;13.63;8.10;;;-1.00;87.40;;;;;;4993934;28;20672;-93
2023/04/03 01:33:14;;;;;;;7.97;7.20;;;-1.00;87.50;;;;;;4995096;28;20245;-93
2023/04/03 01:35:39;;;;;;;12.67;7.73;;;-0.90;87.60;;;;;;4993954;28;20198;-93
2023/04/03 01:38:05;;;;;;;13.80;7.13;;;-0.90;87.60;;;;;;4993552;28;20178;-93
2023/04/03 01:40:31;;;;;;;11.47;7.07;;;-0.90;87.70;;;;;;4993637;28;20201;-93
2023/04/03 01:42:57;;;;;;;13.07;8.03;;;-0.80;87.70;;;;;;4993768;28;20576;-93
2023/04/03 01:45:22;;;;;;;11.93;7.30;;;-0.80;87.60;;;;;;4993386;28;20293;-93
2023/04/03 01:47:48;;;;;;;12.07;6.83;;;-0.80;87.60;;;;;;4993613;28;20273;-93
2023/04/03 01:50:13;;;;;;;9.93;7.43;;;-0.80;87.60;;;;;;4993599;28;20623;-93
2023/04/03 01:52:39;;;;;;;9.43;7.07;;;-0.70;87.50;;;;;;4993305;28;20202;-93
2023/04/03 01:55:05;;;;;;;11.50;6.83;;;-0.80;87.40;;;;;;4994217;28;20199;-93
2023/04/03 01:57:31;;;;;;;11.90;7.57;;;-0.80;87.30;;;;;;4993090;28;20180;-93
2023/04/03 01:59:56;;;;;;;7.87;7.07;;;-0.90;87.30;;;;;;4993020;28;20210;-93
2023/04/03 02:02:22;;;;;;;8.80;7.20;;;-0.90;87.20;;;;;;4993061;28;20173;-93
2023/04/03 02:04:47;;;;;;;7.80;7.07;;;-1.00;87.30;;;;;;4994002;28;20249;-93
2023/04/03 02:07:13;;;;;;;8.30;6.70;;;-0.90;87.30;;;;;;4992938;28;20231;-93
2023/04/03 02:09:38;;;;;;;8.67;7.37;;;-0.90;87.40;;;;;;4992991;28;20226;-92
2023/04/03 02:12:04;;;;;;;7.43;6.73;;;-0.90;87.40;;;;;;4992903;28;20318;-93
2023/04/03 02:14:29;;;;;;;9.60;7.23;;;-0.90;87.40;;;;;;4993874;28;20272;-92
2023/04/03 02:16:55;;;;;;;8.50;7.53;;;-0.90;87.40;;;;;;4992393;28;20175;-93
2023/04/03 02:19:21;;;;;;;11.10;7.70;;;-0.90;87.40;;;;;;4992837;28;20182;-93
2023/04/03 02:21:46;;;;;;;11.77;6.80;;;-1.00;87.30;;;;;;4992800;28;20633;-93
2023/04/03 02:24:12;;;;;;;11.60;7.70;;;-1.00;87.30;;;;;;4992718;28;20197;-93
2023/04/03 02:26:37;;;;;;;8.63;6.90;;;-1.00;87.40;;;;;;4993010;28;20177;-93
2023/04/03 02:29:03;;;;;;;9.03;7.33;;;-1.10;87.40;;;;;;4992963;28;20187;-92
2023/04/03 02:31:28;;;;;;;11.50;6.77;;;-1.10;87.50;;;;;;4993363;28;20192;-92
2023/04/03 02:33:54;;;;;;;10.20;6.33;;;-1.10;87.60;;;;;;4992680;28;20207;-92
2023/04/03 02:36:20;;;;;;;12.80;7.50;;;-1.10;87.70;;;;;;4992961;28;20178;-93
2023/04/03 02:38:45;;;;;;;9.67;7.00;;;-1.10;87.70;;;;;;4992785;28;20174;-92
2023/04/03 02:41:12;;;;;;;8.70;6.73;;;-1.10;87.80;;;;;;4992391;28;20617;-92
2023/04/03 02:43:38;;;;;;;10.50;7.47;;;-1.10;87.90;;;;;;4992502;28;20171;-93
2023/04/03 02:46:04;;;;;;;10.63;7.23;;;-1.10;87.90;;;;;;4992680;28;20194;-93
2023/04/03 02:48:29;;;;;;;9.27;6.57;;;-1.00;88.00;;;;;;4992418;28;20652;-93
2023/04/03 02:50:55;;;;;;;8.47;7.20;;;-1.00;87.90;;;;;;4993677;28;20186;-92
2023/04/03 02:53:21;;;;;;;10.43;6.87;;;-1.00;87.90;;;;;;4992886;28;20294;-92
2023/04/03 02:55:46;;;;;;;8.83;7.57;;;-1.00;88.00;;;;;;4992614;28;20564;-93
2023/04/03 02:58:12;;;;;;;13.53;7.30;;;-1.00;88.00;;;;;;4992402;28;20268;-93
2023/04/03 03:00:38;;;;;;;12.53;6.50;;;-1.00;88.00;;;;;;4993902;28;20178;-93
2023/04/03 03:03:04;;;;;;;10.90;7.80;;;-1.00;88.10;;;;;;4992481;28;20186;-92
2023/04/03 03:05:30;;;;;;;13.60;7.33;;;-1.00;88.00;;;;;;4993478;28;20618;-93
2023/04/03 03:07:56;;;;;;;9.07;7.37;;;-1.00;88.00;;;;;;4992356;28;20267;-92
2023/04/03 03:10:22;;;;;;;12.90;7.50;;;-0.90;88.00;;;;;;4992348;28;20294;-92
2023/04/03 03:12:48;;;;;;;11.67;7.30;;;-0.90;87.90;;;;;;4992209;28;20583;-92
2023/04/03 03:15:15;;;;;;;12.67;8.03;;;-1.00;87.90;;;;;;4992257;28;20198;-92
2023/04/03 03:17:40;;;;;;;12.33;8.07;;;-1.00;87.90;;;;;;4992926;28;20648;-92
2023/04/03 03:20:07;;;;;;;14.63;7.77;;;-1.00;87.90;;;;;;4992225;28;20284;-93
2023/04/03 03:22:33;;;;;;;11.37;10.17;;;-1.10;87.90;;;;;;4992242;28;20180;-92
2023/04/03 03:24:59;;;;;;;13.03;10.17;;;-1.10;87.90;;;;;;4992382;28;20346;-92
2023/04/03 03:27:24;;;;;;;10.67;9.57;;;-1.10;87.90;;;;;;4993442;28;20640;-92
2023/04/03 03:29:50;;;;;;;12.40;10.00;;;-1.10;87.90;;;;;;4995817;28;20217;-92
2023/04/03 03:32:15;;;;;;;10.63;9.47;;;-1.10;87.90;;;;;;4996705;28;20241;-92
2023/04/03 03:34:41;;;;;;;10.10;9.00;;;-1.20;87.90;;;;;;4995861;28;20562;-92
2023/04/03 03:37:07;;;;;;;13.30;8.87;;;-1.10;87.90;;;;;;4995681;28;20175;-93
2023/04/03 03:39:32;;;;;;;11.30;9.20;;;-1.20;88.00;;;;;;4995751;28;20599;-92
2023/04/03 03:41:58;;;;;;;13.57;9.97;;;-1.10;88.10;;;;;;4996822;28;20194;-92
2023/04/03 03:44:23;;;;;;;13.40;9.47;;;-1.10;88.10;;;;;;4995502;28;20194;-92
2023/04/03 03:46:49;;;;;;;9.00;8.03;;;-1.10;88.20;;;;;;4995374;28;20531;-92
2023/04/03 03:49:15;;;;;;;14.57;8.50;;;-1.10;88.20;;;;;;4996849;28;20229;-92
2023/04/03 03:51:40;;;;;;;11.87;8.90;;;-1.10;88.20;;;;;;4995441;28;20188;-90
2023/04/03 03:54:06;;;;;;;10.10;9.10;;;-1.10;88.10;;;;;;4996618;28;20218;-93
2023/04/03 03:56:33;;;;;;;12.50;9.97;;;-1.10;88.20;;;;;;4995251;28;20306;-92
2023/04/03 03:58:58;;;;;;;9.87;8.57;;;-1.10;88.20;;;;;;4995390;28;20177;-92
2023/04/03 04:01:24;;;;;;;12.40;8.37;;;-1.10;88.30;;;;;;4995189;28;20182;-92
2023/04/03 04:03:50;;;;;;;10.77;8.73;;;-1.20;88.20;;;;;;4995489;28;20185;-92
2023/04/03 04:06:16;;;;;;;10.13;9.13;;;-1.20;88.30;;;;;;4995291;28;20554;-92
2023/04/03 04:08:42;;;;;;;13.80;9.80;;;-1.20;88.30;;;;;;4996369;28;20195;-92
2023/04/03 04:11:08;;;;;;;21.83;11.20;;;-1.20;88.40;;;;;;4995081;28;20179;-92
2023/04/03 04:13:33;;;;;;;11.27;9.33;;;-1.10;88.40;;;;;;4996330;28;20205;-92
2023/04/03 04:15:59;;;;;;;17.53;9.97;;;-1.20;88.40;;;;;;4996073;28;20548;-92
2023/04/03 04:18:24;;;;;;;9.90;8.87;;;-1.20;88.40;;;;;;4994836;28;20673;-93
2023/04/03 04:20:50;;;;;;;16.63;9.67;;;-1.20;88.50;;;;;;4995183;28;20170;-92
2023/04/03 04:23:17;;;;;;;20.10;9.03;;;-1.20;88.40;;;;;;4995896;28;20277;-92
2023/04/03 04:25:45;;;;;;;10.77;8.40;;;-1.20;88.40;;;;;;4994701;28;20679;-92
2023/04/03 04:28:11;;;;;;;11.00;9.73;;;-1.20;88.60;;;;;;4995881;28;20533;-92
2023/04/03 04:30:36;;;;;;;15.87;10.57;;;-1.20;88.50;;;;;;4994943;28;20180;-92
2023/04/03 04:33:02;;;;;;;15.27;8.70;;;-1.30;88.50;;;;;;4995270;28;20577;-92
2023/04/03 04:35:28;;;;;;;16.33;9.63;;;-1.30;88.60;;;;;;4994815;28;20202;-92
2023/04/03 04:37:53;;;;;;;25.10;11.07;;;-1.30;88.70;;;;;;4995858;28;20539;-92
2023/04/03 04:40:19;;;;;;;12.07;8.40;;;-1.30;88.70;;;;;;4995503;28;20549;-92
2023/04/03 04:42:45;;;;;;;11.23;9.50;;;-1.30;88.70;;;;;;4994323;28;20670;-92
2023/04/03 04:45:10;;;;;;;10.00;7.37;;;-1.20;88.70;;;;;;4995567;28;20186;-92
2023/04/03 04:47:36;;;;;;;10.27;8.00;;;-1.30;88.70;;;;;;4994853;28;20179;-92
2023/04/03 04:50:01;;;;;;;13.70;8.90;;;-1.30;88.70;;;;;;4994375;28;20265;-92
2023/04/03 04:52:27;;;;;;;12.47;9.00;;;-1.30;88.80;;;;;;4994909;28;20182;-92
2023/04/03 04:54:52;;;;;;;16.67;9.20;;;-1.30;88.80;;;;;;4994032;28;20668;-92
2023/04/03 04:57:18;;;;;;;17.77;8.77;;;-1.20;88.80;;;;;;4993995;28;20182;-92
2023/04/03 04:59:43;;;;;;;13.57;8.60;;;-1.30;88.80;;;;;;4994312;28;20186;-92
2023/04/03 05:02:09;;;;;;;10.77;9.67;;;-1.30;88.80;;;;;;4994009;28;20228;-92
2023/04/03 05:04:34;;;;;;;9.67;8.63;;;-1.20;88.90;;;;;;4995164;28;20205;-92
2023/04/03 05:07:00;;;;;;;10.73;8.90;;;-1.20;88.80;;;;;;4993880;28;20184;-92
2023/04/03 05:09:26;;;;;;;12.03;8.67;;;-1.10;88.90;;;;;;4993988;28;20186;-92
2023/04/03 05:11:51;;;;;;;22.00;9.53;;;-1.20;88.80;;;;;;4993816;28;20652;-92
2023/04/03 05:14:17;;;;;;;12.07;9.30;;;-1.10;88.80;;;;;;4994790;28;20210;-92
2023/04/03 05:16:42;;;;;;;9.77;8.57;;;-1.10;88.80;;;;;;4993881;28;20189;-92
2023/04/03 05:19:08;;;;;;;10.33;8.77;;;-1.10;88.80;;;;;;4993720;28;20261;-92
2023/04/03 05:21:34;;;;;;;9.57;8.57;;;-1.20;88.80;;;;;;4993628;28;20660;-92
2023/04/03 05:24:02;;;;;;;11.30;8.93;;;-1.10;88.80;;;;;;4994800;28;20263;-92
2023/04/03 05:26:29;;;;;;;12.10;9.10;;;-1.10;88.80;;;;;;4994838;28;20205;-92
2023/04/03 05:28:55;;;;;;;15.77;8.93;;;-1.10;88.80;;;;;;4994934;28;20205;-92
2023/04/03 05:31:21;;;;;;;15.50;9.23;;;-1.00;88.80;;;;;;4993494;28;20579;-93
2023/04/03 05:33:46;;;;;;;9.97;8.93;;;-0.90;88.90;;;;;;4993433;28;20240;-92
2023/04/03 05:36:13;;;;;;;10.20;8.27;;;-0.80;88.90;;;;;;4994733;28;20179;-92
2023/04/03 05:38:39;;;;;;;9.90;8.03;;;-0.80;88.80;;;;;;4993844;28;20340;-93
2023/04/03 05:41:04;;;;;;;9.83;8.83;;;-0.70;88.70;;;;;;4994729;28;20172;-93
2023/04/03 05:43:30;;;;;;;11.63;9.00;;;-0.70;88.60;;;;;;4993348;28;20200;-93
2023/04/03 05:45:57;;;;;;;16.80;8.90;;;-0.70;88.60;;;;;;4993577;28;20264;-89
2023/04/03 05:48:22;;;;;;;10.57;9.57;;;-0.70;88.50;;;;;;4993058;28;20184;-91
2023/04/03 05:50:48;;;;;;;14.50;9.13;;;-0.70;88.50;;;;;;4994246;28;20181;-91
2023/04/03 05:53:25;;;;;;;10.70;9.53;;;-0.60;88.60;;;;;;4992722;28;20212;-91
2023/04/03 05:55:51;;;;;;;14.93;8.97;;;-0.50;88.70;;;;;;4993154;28;20202;-92
2023/04/03 05:58:16;;;;;;;13.07;10.17;;;-0.40;88.80;;;;;;4993971;28;20190;-93
2023/04/03 06:00:42;;;;;;;14.87;10.43;;;-0.20;88.80;;;;;;4993522;28;20180;-93
2023/04/03 06:03:08;;;;;;;14.63;9.33;;;-0.10;88.90;;;;;;4994099;28;20603;-93
2023/04/03 06:05:33;;;;;;;16.03;10.27;;;0.00;88.90;;;;;;4994112;28;20252;-93
2023/04/03 06:07:59;;;;;;;16.73;10.00;;;0.00;88.80;;;;;;4993867;28;20190;-93
2023/04/03 06:10:24;;;;;;;12.90;10.23;;;0.10;88.90;;;;;;4993142;28;20598;-93
2023/04/03 06:12:51;;;;;;;19.70;11.00;;;0.20;88.80;;;;;;4992907;28;20674;-93
2023/04/03 06:15:17;;;;;;;15.83;10.73;;;0.30;88.70;;;;;;4993081;28;20567;-92
2023/04/03 06:17:42;;;;;;;14.43;11.20;;;0.30;88.60;;;;;;4993282;28;20265;-93
2023/04/03 06:20:09;;;;;;;13.10;11.13;;;0.30;88.40;;;;;;4993582;28;20185;-93
2023/04/03 06:22:35;;;;;;;14.83;10.53;;;0.30;88.50;;;;;;4994994;28;20176;-92
2023/04/03 06:25:00;;;;;;;17.53;11.10;;;0.30;88.50;;;;;;4993969;28;20193;-92
2023/04/03 06:27:26;;;;;;;14.50;10.60;;;0.40;88.50;;;;;;4993453;28;20177;-93
2023/04/03 06:29:51;;;;;;;11.10;10.10;;;0.40;88.60;;;;;;4993727;28;20211;-92
2023/04/03 06:32:17;;;;;;;14.67;10.43;;;0.50;88.60;;;;;;4993301;28;20179;-93
2023/04/03 06:34:42;;;;;;;15.30;10.77;;;0.60;88.70;;;;;;4994075;28;20328;-93
2023/04/03 06:37:20;;;;;;;21.43;12.17;;;0.70;88.80;;;;;;4994018;28;20235;-93
2023/04/03 06:39:47;;;;;;;15.20;11.90;;;0.70;88.80;;;;;;4993772;28;20164;-93
2023/04/03 06:42:13;;;;;;;13.60;11.80;;;0.80;88.80;;;;;;4999576;28;20223;-92
2023/04/03 06:44:39;;;;;;;12.60;10.80;;;0.80;88.80;;;;;;4992473;28;20691;-92
2023/04/03 06:47:05;;;;;;;12.20;10.93;;;0.80;88.70;;;;;;4992741;28;20185;-92
2023/04/03 06:49:31;;;;;;;16.33;10.83;;;0.90;88.60;;;;;;4999049;28;20180;-92
2023/04/03 06:51:57;;;;;;;15.93;11.63;;;1.00;88.50;;;;;;4998299;28;20224;-92
2023/04/03 06:54:23;;;;;;;14.03;12.40;;;1.10;88.40;;;;;;4994389;28;20212;-92
2023/04/03 06:56:49;;;;;;;17.00;12.50;;;1.20;88.40;;;;;;4994509;28;20175;-93
2023/04/03 06:59:15;;;;;;;13.70;10.80;;;1.30;88.30;;;;;;4992977;28;20177;-92
2023/04/03 07:01:40;;;;;;;12.83;11.27;;;1.30;88.20;;;;;;4994256;28;20199;-93
2023/04/03 07:04:07;;;;;;;13.07;11.50;;;1.40;88.00;;;;;;4995717;28;20213;-93
2023/04/03 07:06:33;;;;;;;15.03;11.40;;;1.50;88.00;;;;;;4996355;28;20186;-93
2023/04/03 07:09:00;;;;;;;13.90;11.70;;;1.60;87.90;;;;;;4996583;28;20201;-93
2023/04/03 07:11:26;;;;;;;18.23;11.30;;;1.80;87.80;;;;;;4996888;28;20177;-93
2023/04/03 07:13:52;;;;;;;11.47;10.43;;;1.80;87.40;;;;;;4996645;28;20212;-93
2023/04/03 07:16:17;;;;;;;16.60;10.87;;;1.90;87.10;;;;;;4996416;28;20235;-93
2023/04/03 07:18:46;;;;;;;20.53;11.20;;;2.00;86.60;;;;;;5009739;28;20237;-94
2023/04/03 07:21:12;;;;;;;16.37;11.30;;;2.10;86.50;;;;;;4998796;28;20644;-92
2023/04/03 07:23:38;;;;;;;15.33;11.50;;;2.30;86.50;;;;;;4996414;28;20230;-92
2023/04/03 07:26:04;;;;;;;13.53;11.30;;;2.40;86.30;;;;;;4997199;28;20178;-92
2023/04/03 07:28:30;;;;;;;14.73;11.37;;;2.40;86.00;;;;;;4997210;28;20374;-92
2023/04/03 07:31:07;;;;;;;14.77;10.97;;;2.50;85.80;;;;;;4995954;28;20205;-92
2023/04/03 07:33:32;;;;;;;14.97;10.33;;;2.70;85.40;;;;;;4995688;28;20198;-92
2023/04/03 07:35:58;;;;;;;14.00;10.77;;;2.80;85.10;;;;;;4995701;28;20194;-92
2023/04/03 07:38:24;;;;;;;20.27;10.00;;;2.90;84.90;;;;;;4996804;28;20174;-92
2023/04/03 07:40:52;;;;;;;17.17;8.97;;;3.10;84.20;;;;;;4996728;28;20170;-92
2023/04/03 07:43:19;;;;;;;15.17;9.53;;;3.20;83.70;;;;;;4996911;28;20233;-92
2023/04/03 07:45:46;;;;;;;14.37;10.50;;;3.10;83.10;;;;;;4997593;28;20205;-93
2023/04/03 07:48:13;;;;;;;12.47;10.20;;;3.30;83.00;;;;;;4995915;28;20260;-93
2023/04/03 07:50:42;;;;;;;14.70;10.87;;;3.40;82.70;;;;;;4995568;28;20189;-93
2023/04/03 07:53:08;;;;;;;12.03;10.60;;;3.50;82.80;;;;;;4995442;28;20209;-93
2023/04/03 07:55:40;;;;;;;12.50;10.20;;;3.70;82.40;;;;;;4996657;28;20250;-93
2023/04/03 07:58:06;;;;;;;11.20;10.30;;;3.70;80.80;;;;;;4995395;28;20173;-93
2023/04/03 08:00:31;;;;;;;12.10;10.90;;;3.80;79.70;;;;;;4995136;28;20174;-93
2023/04/03 08:02:57;;;;;;;13.53;11.80;;;3.90;78.90;;;;;;4995214;28;20207;-92
2023/04/03 08:05:22;;;;;;;22.37;12.63;;;4.00;78.70;;;;;;4995222;28;20198;-92
2023/04/03 08:07:48;;;;;;;12.77;11.00;;;4.00;78.10;;;;;;4995293;28;20182;-91
2023/04/03 08:10:15;;;;;;;13.10;12.00;;;4.30;78.40;;;;;;4995062;28;20556;-92
2023/04/03 08:12:41;;;;;;;14.50;13.17;;;4.30;74.10;;;;;;4996133;28;20180;-91
2023/04/03 08:15:08;;;;;;;13.77;12.87;;;4.40;73.20;;;;;;4995556;28;20602;-92
2023/04/03 08:17:34;;;;;;;15.20;13.70;;;4.60;72.90;;;;;;4996179;28;20176;-90
2023/04/03 08:20:00;;;;;;;15.43;14.33;;;4.70;71.60;;;;;;4994924;28;20195;-92
2023/04/03 08:22:26;;;;;;;15.07;13.70;;;4.80;71.30;;;;;;4995999;28;20581;-92
2023/04/03 08:24:51;;;;;;;16.10;15.00;;;4.80;70.90;;;;;;4995955;28;20201;-92
2023/04/03 08:27:17;;;;;;;16.03;14.83;;;4.80;69.30;;;;;;4994815;28;20719;-92
2023/04/03 08:29:43;;;;;;;15.83;14.70;;;4.80;69.10;;;;;;4995044;28;20215;-92
2023/04/03 08:32:08;;;;;;;15.67;14.47;;;5.00;69.40;;;;;;4995981;28;20284;-93
2023/04/03 08:34:34;;;;;;;17.07;15.77;;;5.00;68.50;;;;;;4995356;28;20303;-93
2023/04/03 08:37:01;;;;;;;16.90;15.53;;;5.10;66.50;;;;;;4996339;28;20183;-91
2023/04/03 08:39:27;;;;;;;17.30;15.90;;;5.20;69.00;;;;;;4995456;28;20177;-93
2023/04/03 08:41:56;;;;;;;16.60;15.10;;;5.10;67.10;;;;;;4994896;28;20664;-93
2023/04/03 08:44:39;;;;;;;16.90;15.50;;;5.30;68.00;;;;;;4994493;28;20308;-93
2023/04/03 08:47:26;;;;;;;14.93;13.93;;;5.30;67.70;;;;;;4994976;28;20697;-93
2023/04/03 08:50:04;;;;;;;15.90;14.73;;;5.30;63.30;;;;;;4994443;28;20177;-94
2023/04/03 08:52:48;;;;;;;16.33;15.07;;;5.30;63.00;;;;;;4994725;28;20205;-93
2023/04/03 08:55:22;;;;;;;15.97;14.73;;;5.40;63.50;;;;;;4994280;28;20228;-93
2023/04/03 08:57:50;;;;;;;16.60;15.53;;;5.50;62.30;;;;;;4995388;28;20170;-93
2023/04/03 09:00:24;;;;;;;17.00;15.53;;;5.60;62.00;;;;;;4995076;28;20202;-93
2023/04/03 09:02:52;;;;;;;17.53;16.10;;;5.70;63.00;;;;;;4995023;28;20170;-93
2023/04/03 09:05:20;;;;;;;16.00;14.90;;;5.70;60.80;;;;;;4994698;28;20664;-93
2023/04/03 09:07:56;;;;;;;16.40;15.20;;;5.90;63.00;;;;;;4995462;28;20261;-92
2023/04/03 09:10:32;;;;;;;16.77;15.47;;;6.00;61.20;;;;;;4994685;28;20265;-93
2023/04/03 09:13:10;;;;;;;16.47;15.13;;;6.10;59.60;;;;;;4994388;28;20197;-93
2023/04/03 09:15:36;;;;;;;17.53;16.33;;;6.20;60.30;;;;;;4996684;28;20204;-94
2023/04/03 09:18:20;;;;;;;16.97;15.40;;;6.20;60.60;;;;;;4996443;28;20371;-93
2023/04/03 09:21:00;;;;;;;16.90;15.70;;;6.20;59.30;;;;;;4995845;28;20233;-93
2023/04/03 09:23:45;;;;;;;17.13;15.77;;;6.30;57.90;;;;;;4994878;28;20163;-93
2023/04/03 09:26:34;;;;;;;17.30;15.80;;;6.40;57.80;;;;;;4994204;28;20197;-92
2023/04/03 09:29:06;;;;;;;16.87;15.53;;;6.40;56.50;;;;;;4994032;28;20609;-91
2023/04/03 09:31:40;;;;;;;16.87;15.77;;;6.30;53.10;;;;;;4994948;28;20245;-93
2023/04/03 09:34:22;;;;;;;16.83;15.60;;;6.30;54.80;;;;;;4993645;28;20205;-92
2023/04/03 09:36:53;;;;;;;16.67;15.20;;;6.40;56.10;;;;;;4995612;28;20212;-93
2023/04/03 09:39:22;;;;;;;16.70;15.40;;;6.60;56.40;;;;;;4993889;28;20162;-92
2023/04/03 09:42:12;;;;;;;16.77;15.60;;;6.70;56.30;;;;;;4993773;28;20186;-94
2023/04/03 09:44:39;;;;;;;16.80;15.70;;;6.90;56.70;;;;;;4993538;28;20289;-93
2023/04/03 09:47:19;;;;;;;17.77;16.27;;;7.10;58.30;;;;;;4994124;28;20295;-93
2023/04/03 09:49:45;;;;;;;17.10;15.80;;;7.30;55.90;;;;;;4995340;28;20162;-93
2023/04/03 09:52:24;;;;;;;18.03;16.60;;;7.30;56.80;;;;;;4993442;28;20321;-93
2023/04/03 09:54:49;;;;;;;17.90;16.60;;;7.40;55.80;;;;;;4993674;28;20692;-92
2023/04/03 09:57:15;;;;;;;17.60;16.07;;;7.40;56.40;;;;;;4993248;28;20176;-92
2023/04/03 09:59:47;;;;;;;17.83;16.53;;;7.60;54.40;;;;;;4994620;28;20249;-91
2023/04/03 10:02:40;;;;;;;18.17;16.50;;;7.60;55.40;;;;;;5000050;28;20190;-93
2023/04/03 10:05:28;;;;;;;18.03;16.50;;;7.90;55.30;;;;;;4998274;28;20190;-94
2023/04/03 10:08:12;;;;;;;18.10;16.60;;;7.70;53.50;;;;;;4994753;28;20170;-94
2023/04/03 10:10:39;;;;;;;18.67;17.10;;;7.50;52.10;;;;;;4994482;28;20181;-94
2023/04/03 10:13:12;;;;;;;17.93;16.60;;;7.30;52.10;;;;;;4996695;28;20225;-94
2023/04/03 10:15:48;;;;;;;17.87;16.57;;;7.80;56.70;;;;;;4993636;28;20197;-92
2023/04/03 10:18:42;;;;;;;18.20;16.70;;;8.20;55.30;;;;;;4994171;28;20169;-92
2023/04/03 10:21:43;;;;;;;17.80;16.40;;;7.90;51.70;;;;;;4994089;28;20555;-90
2023/04/03 10:24:20;;;;;;;17.80;16.60;;;7.90;52.90;;;;;;4994009;28;20194;-90
2023/04/03 10:27:08;;;;;;;18.30;16.93;;;8.20;52.00;;;;;;4993586;28;20170;-90
2023/04/03 10:29:50;;;;;;;18.33;17.10;;;8.20;51.70;;;;;;4995020;28;20181;-94
2023/04/03 10:32:42;;;;;;;18.33;16.97;;;8.30;48.90;;;;;;4996976;28;20177;-93
2023/04/03 10:35:20;;;;;;;17.80;16.50;;;8.20;50.50;;;;;;4992922;28;20300;-91
2023/04/03 10:37:48;;;;;;;17.87;16.57;;;8.10;51.20;;;;;;4995254;28;20197;-93
2023/04/03 10:40:35;;;;;;;18.10;16.83;;;8.20;48.50;;;;;;5004008;28;20267;-93
2023/04/03 10:43:17;;;;;;;17.47;16.27;;;8.30;50.60;;;;;;5000497;28;20193;-91
2023/04/03 10:46:00;;;;;;;17.57;16.27;;;8.30;49.80;;;;;;5000230;28;20202;-94
2023/04/03 10:48:41;;;;;;;17.13;15.70;;;8.50;50.10;;;;;;5000498;28;20196;-93
2023/04/03 10:51:28;;;;;;;17.70;16.20;;;8.30;49.30;;;;;;4999070;28;20664;-92
2023/04/03 10:54:20;;;;;;;18.70;16.80;;;7.90;50.60;;;;;;5000138;28;20200;-92
2023/04/03 10:57:01;;;;;;;17.53;16.33;;;8.00;51.10;;;;;;5000184;28;20273;-93
2023/04/03 10:59:38;;;;;;;18.70;17.30;;;7.80;49.70;;;;;;4998972;28;20687;-93
2023/04/03 11:02:12;;;;;;;17.77;16.47;;;7.60;50.80;;;;;;4998949;28;20629;-92
2023/04/03 11:04:40;;;;;;;17.97;16.70;;;7.60;51.90;;;;;;4999229;28;20639;-93
2023/04/03 11:07:15;;;;;;;18.20;16.90;;;7.80;48.80;;;;;;5000123;28;20175;-93
2023/04/03 11:09:43;;;;;;;18.27;16.97;;;8.00;49.60;;;;;;4998960;28;20170;-93
2023/04/03 11:12:42;;;;;;;18.37;16.83;;;8.40;50.50;;;;;;4999098;28;20166;-93
2023/04/03 11:15:15;;;;;;;18.87;17.33;;;8.60;49.50;;;;;;5000270;28;20193;-92
2023/04/03 11:17:54;;;;;;;18.07;16.77;;;8.50;48.70;;;;;;4999077;28;20164;-91
2023/04/03 11:20:32;;;;;;;18.03;16.70;;;8.40;49.00;;;;;;5000891;28;20154;-93
2023/04/03 11:23:24;;;;;;;18.03;16.63;;;8.60;50.50;;;;;;5003287;28;20170;-94
2023/04/03 11:25:53;;;;;;;18.70;17.13;;;8.90;51.40;;;;;;4998972;28;20204;-94
2023/04/03 11:28:19;;;;;;;17.77;16.40;;;9.50;52.10;;;;;;4999149;28;20545;-94
2023/04/03 11:31:02;;;;;;;17.20;15.87;;;9.80;48.70;;;;;;5000751;28;20177;-94
2023/04/03 11:33:36;;;;;;;17.13;15.73;;;9.70;47.50;;;;;;5000687;28;20201;-95
2023/04/03 11:36:28;;;;;;;18.10;16.70;;;9.10;48.00;;;;;;5000564;28;20197;-94
2023/04/03 11:39:10;;;;;;;18.30;16.87;;;8.60;48.60;;;;;;5002602;28;20264;-93
2023/04/03 11:41:35;;;;;;;17.90;16.27;;;8.60;49.70;;;;;;4999940;28;20190;-94
2023/04/03 11:44:05;;;;;;;17.33;16.13;;;8.60;50.10;;;;;;4999449;28;20336;-94
2023/04/03 11:46:58;;;;;;;16.83;15.73;;;8.40;49.90;;;;;;5000579;28;20178;-94
2023/04/03 11:50:03;;;;;;;17.60;16.20;;;8.50;52.50;;;;;;4996527;28;20178;-93
2023/04/03 11:52:42;;;;;;;17.90;16.33;;;8.70;52.40;;;;;;4995904;28;20182;-94
2023/04/03 11:55:23;;;;;;;17.73;16.30;;;8.40;51.30;;;;;;4995525;28;20615;-94
2023/04/03 11:57:58;;;;;;;17.67;16.37;;;8.30;52.10;;;;;;4995707;28;20228;-93
2023/04/03 12:00:51;;;;;;;18.00;16.70;;;8.30;52.80;;;;;;4995953;28;20173;-93
2023/04/03 12:03:28;;;;;;;17.27;16.03;;;8.30;51.90;;;;;;4995490;28;20166;-94
2023/04/03 12:06:17;;;;;;;17.50;16.23;;;8.20;53.60;;;;;;4995483;28;20389;-93
2023/04/03 12:08:50;;;;;;;17.07;15.93;;;8.10;51.60;;;;;;4995170;28;20190;-93
2023/04/03 12:11:32;;;;;;;18.37;16.83;;;7.90;55.10;;;;;;4995582;28;20178;-93
2023/04/03 12:13:57;;;;;;;18.10;16.47;;;7.80;52.90;;;;;;4995106;28;20205;-93
2023/04/03 12:16:31;;;;;;;17.43;15.90;;;7.70;53.90;;;;;;4995491;28;20178;-92
2023/04/03 12:19:05;;;;;;;17.13;15.90;;;7.80;53.10;;;;;;4997341;28;20158;-93
2023/04/03 12:21:48;;;;;;;17.17;15.53;;;7.80;52.80;;;;;;4995976;28;20158;-93
2023/04/03 12:24:17;;;;;;;17.90;16.30;;;7.80;52.10;;;;;;4995895;28;20210;-93
2023/04/03 12:27:03;;;;;;;18.00;16.80;;;7.80;53.20;;;;;;4996235;28;20292;-93
2023/04/03 12:29:35;;;;;;;17.40;15.97;;;7.80;55.50;;;;;;4995071;28;20186;-94
2023/04/03 12:32:07;;;;;;;18.60;17.10;;;7.80;54.60;;;;;;4995065;28;20562;-93
2023/04/03 12:35:05;;;;;;;17.90;16.57;;;7.80;55.30;;;;;;4994731;28;20210;-93
2023/04/03 12:37:43;;;;;;;18.70;16.97;;;7.80;54.60;;;;;;4994953;28;20198;-93
2023/04/03 12:40:32;;;;;;;18.37;16.87;;;8.00;57.40;;;;;;4995258;28;20162;-93
2023/04/03 12:43:10;;;;;;;17.60;16.30;;;8.30;54.50;;;;;;4994517;28;20196;-93
2023/04/03 12:45:50;;;;;;;17.83;16.47;;;8.80;56.60;;;;;;4994497;28;20202;-93
2023/04/03 12:48:20;;;;;;;17.30;16.00;;;9.00;54.10;;;;;;4994878;28;20165;-93
2023/04/03 12:50:49;;;;;;;17.70;16.20;;;9.10;51.30;;;;;;4994750;28;20245;-92
2023/04/03 12:53:34;;;;;;;17.27;15.87;;;9.00;52.40;;;;;;4995805;28;20560;-93